Time;durP1;ratioP1;P1;durP2;ratioP2;P2;SDS_P1;SDS_P2;PMS_P1;PMS_P2;Temp;Humidity;BMP_temperature;BMP_pressure;BME280_temperature;BME280_humidity;BME280_pressure;Samples;Min_cycle;Max_cycle;Signal;HPM_P1;HPM_P2
2022/03/04 00:00:54;;;;;;;12.80;9.03;;;3.00;99.90;;;;;;5054768;28;20579;-85
2022/03/04 00:03:19;;;;;;;14.47;9.37;;;2.90;99.90;;;;;;5055073;28;20635;-84
2022/03/04 00:05:45;;;;;;;13.20;9.10;;;2.80;99.90;;;;;;5054827;28;20203;-84
2022/03/04 00:08:10;;;;;;;16.73;10.83;;;2.70;99.90;;;;;;5036842;28;20199;-85
2022/03/04 00:10:36;;;;;;;14.77;9.67;;;2.70;99.90;;;;;;5037063;28;20182;-84
2022/03/04 00:13:02;;;;;;;15.00;9.20;;;2.70;99.90;;;;;;5036815;28;20187;-85
2022/03/04 00:15:28;;;;;;;15.83;10.13;;;2.70;99.90;;;;;;5036758;28;20176;-84
2022/03/04 00:17:54;;;;;;;12.87;9.03;;;2.70;99.90;;;;;;5036809;28;20227;-85
2022/03/04 00:20:19;;;;;;;15.03;9.87;;;2.70;99.90;;;;;;5063602;22;20578;-83
2022/03/04 00:22:45;;;;;;;17.07;9.27;;;2.70;99.90;;;;;;5041443;28;20175;-85
2022/03/04 00:25:11;;;;;;;16.90;10.10;;;2.70;99.90;;;;;;5042231;28;20183;-85
2022/03/04 00:27:37;;;;;;;11.93;8.73;;;2.60;99.90;;;;;;5041521;28;20185;-86
2022/03/04 00:30:04;;;;;;;14.50;10.10;;;2.60;99.90;;;;;;5041749;28;20204;-85
2022/03/04 00:32:30;;;;;;;12.70;8.57;;;2.60;99.90;;;;;;5041304;28;20414;-83
2022/03/04 00:34:55;;;;;;;13.40;8.97;;;2.50;99.90;;;;;;5041356;28;20465;-85
2022/03/04 00:37:21;;;;;;;16.80;9.73;;;2.50;99.90;;;;;;5040716;28;20176;-85
2022/03/04 00:39:46;;;;;;;17.10;10.40;;;2.40;99.90;;;;;;5040403;28;20191;-85
2022/03/04 00:42:12;;;;;;;13.87;8.83;;;2.40;99.90;;;;;;5040458;28;20185;-86
2022/03/04 00:44:38;;;;;;;15.17;8.77;;;2.30;99.90;;;;;;5040768;28;20180;-83
2022/03/04 00:47:07;;;;;;;15.90;9.10;;;2.20;99.90;;;;;;5039923;28;20194;-85
2022/03/04 00:49:34;;;;;;;14.97;9.23;;;2.30;99.90;;;;;;5057807;28;20203;-85
2022/03/04 00:51:59;;;;;;;15.80;8.97;;;2.30;99.90;;;;;;5040695;28;20573;-85
2022/03/04 00:54:25;;;;;;;14.47;9.63;;;2.40;99.90;;;;;;5040492;28;20603;-85
2022/03/04 00:56:50;;;;;;;15.70;9.43;;;2.50;99.90;;;;;;5040128;28;20185;-85
2022/03/04 00:59:16;;;;;;;17.50;9.43;;;2.50;99.90;;;;;;5040294;28;20667;-86
2022/03/04 01:01:42;;;;;;;14.17;9.33;;;2.50;99.90;;;;;;5040164;28;20244;-85
2022/03/04 01:04:07;;;;;;;14.10;9.13;;;2.60;99.90;;;;;;5040069;28;20234;-85
2022/03/04 01:06:34;;;;;;;16.07;10.10;;;2.60;99.90;;;;;;5040923;28;20192;-85
2022/03/04 01:09:00;;;;;;;19.73;10.37;;;2.60;99.90;;;;;;5040463;28;20207;-85
2022/03/04 01:11:25;;;;;;;13.90;9.23;;;2.70;99.90;;;;;;5040815;28;21007;-85
2022/03/04 01:13:51;;;;;;;17.17;10.10;;;2.70;99.90;;;;;;5040696;28;20211;-85
2022/03/04 01:16:17;;;;;;;16.77;9.83;;;2.70;99.90;;;;;;5039959;28;20186;-84
2022/03/04 01:18:42;;;;;;;14.93;9.80;;;2.70;99.90;;;;;;5039710;28;20180;-86
2022/03/04 01:21:08;;;;;;;17.83;10.00;;;2.70;99.90;;;;;;5040238;28;20231;-85
2022/03/04 01:23:34;;;;;;;12.90;8.80;;;2.70;99.90;;;;;;5039947;28;20189;-85
2022/03/04 01:26:00;;;;;;;16.63;10.03;;;2.60;99.90;;;;;;5057579;28;20666;-85
2022/03/04 01:28:26;;;;;;;15.30;10.60;;;2.60;99.90;;;;;;5040032;28;20422;-85
2022/03/04 01:30:52;;;;;;;15.77;10.20;;;2.60;99.90;;;;;;5057969;28;20450;-85
2022/03/04 01:33:17;;;;;;;14.70;9.50;;;2.60;99.90;;;;;;5040329;28;20185;-84
2022/03/04 01:35:43;;;;;;;20.57;10.40;;;2.60;99.90;;;;;;5040006;28;20278;-85
2022/03/04 01:38:08;;;;;;;16.00;10.40;;;2.60;99.90;;;;;;5039816;28;20174;-85
2022/03/04 01:40:34;;;;;;;21.20;11.63;;;2.70;99.90;;;;;;5040460;28;20757;-85
2022/03/04 01:43:01;;;;;;;18.53;9.23;;;2.70;99.90;;;;;;5057377;28;20176;-84
2022/03/04 01:45:27;;;;;;;12.97;9.13;;;2.70;99.90;;;;;;5040397;28;20184;-81
2022/03/04 01:47:52;;;;;;;15.63;10.03;;;2.60;99.90;;;;;;5039709;28;20434;-85
2022/03/04 01:50:18;;;;;;;20.10;10.27;;;2.70;99.90;;;;;;5040284;28;20294;-84
2022/03/04 01:52:43;;;;;;;19.40;11.30;;;2.70;99.90;;;;;;5040526;28;20189;-86
2022/03/04 01:55:10;;;;;;;16.37;9.57;;;2.70;99.90;;;;;;5048446;28;20201;-85
2022/03/04 01:57:36;;;;;;;13.97;9.40;;;2.80;99.90;;;;;;5040283;28;20186;-85
2022/03/04 02:00:05;;;;;;;17.33;9.60;;;2.70;99.90;;;;;;5039966;28;20470;-85
2022/03/04 02:02:30;;;;;;;17.10;9.93;;;2.70;99.90;;;;;;5039482;28;20419;-84
2022/03/04 02:04:56;;;;;;;17.90;9.87;;;2.70;99.90;;;;;;5038812;28;20465;-85
2022/03/04 02:07:21;;;;;;;18.60;10.87;;;2.70;99.90;;;;;;5057754;28;20205;-84
2022/03/04 02:09:47;;;;;;;15.20;10.80;;;2.70;99.90;;;;;;5038932;28;20211;-85
2022/03/04 02:12:13;;;;;;;17.90;10.00;;;2.70;99.90;;;;;;5040224;28;20535;-84
2022/03/04 02:14:39;;;;;;;19.73;10.03;;;2.70;99.90;;;;;;5039013;28;20605;-84
2022/03/04 02:17:05;;;;;;;17.43;10.70;;;2.60;99.90;;;;;;5039077;28;20259;-83
2022/03/04 02:19:30;;;;;;;18.70;9.53;;;2.60;99.90;;;;;;5039266;28;20692;-85
2022/03/04 02:21:59;;;;;;;14.87;10.60;;;2.60;99.90;;;;;;5040145;28;20179;-84
2022/03/04 02:24:26;;;;;;;17.40;10.50;;;2.60;99.90;;;;;;5040150;28;20243;-85
2022/03/04 02:26:54;;;;;;;17.47;11.13;;;2.70;99.90;;;;;;5039415;28;20419;-85
2022/03/04 02:29:20;;;;;;;14.40;10.10;;;2.60;99.90;;;;;;5039219;28;20450;-85
2022/03/04 02:31:46;;;;;;;17.20;9.27;;;2.50;99.90;;;;;;5039722;28;20430;-85
2022/03/04 02:34:12;;;;;;;15.13;9.63;;;2.50;99.90;;;;;;5039343;28;20522;-85
2022/03/04 02:36:38;;;;;;;17.67;11.00;;;2.50;99.90;;;;;;5056852;28;20229;-85
2022/03/04 02:39:04;;;;;;;15.93;10.30;;;2.40;99.90;;;;;;5039198;28;20439;-85
2022/03/04 02:41:31;;;;;;;17.83;9.97;;;2.50;99.90;;;;;;5038820;28;20446;-86
2022/03/04 02:43:56;;;;;;;15.70;9.93;;;2.50;99.90;;;;;;5039967;28;21011;-85
2022/03/04 02:46:22;;;;;;;15.80;10.20;;;2.50;99.90;;;;;;5039717;28;20422;-85
2022/03/04 02:48:47;;;;;;;19.03;10.30;;;2.60;99.90;;;;;;5038801;28;20800;-84
2022/03/04 02:51:13;;;;;;;18.53;10.73;;;2.60;99.90;;;;;;5038726;28;20186;-84
2022/03/04 02:53:39;;;;;;;17.43;11.60;;;2.60;99.90;;;;;;5039583;28;20209;-85
2022/03/04 02:56:05;;;;;;;21.67;11.50;;;2.60;99.90;;;;;;5039524;28;20181;-86
2022/03/04 02:58:30;;;;;;;19.63;9.57;;;2.60;99.90;;;;;;5039649;28;20179;-85
2022/03/04 03:00:56;;;;;;;21.37;10.70;;;2.60;99.90;;;;;;5039247;28;20791;-84
2022/03/04 03:03:21;;;;;;;15.93;9.50;;;2.60;99.90;;;;;;5039836;28;20178;-86
2022/03/04 03:05:47;;;;;;;19.70;10.90;;;2.60;99.90;;;;;;5039036;28;20180;-85
2022/03/04 03:08:13;;;;;;;13.17;8.70;;;2.60;99.90;;;;;;5039091;28;20208;-84
2022/03/04 03:10:38;;;;;;;15.90;10.37;;;2.60;99.90;;;;;;5039552;28;20200;-85
2022/03/04 03:13:04;;;;;;;17.47;11.70;;;2.50;99.90;;;;;;5038553;28;20180;-83
2022/03/04 03:15:30;;;;;;;17.10;10.90;;;2.50;99.90;;;;;;5038534;28;20274;-84
2022/03/04 03:17:55;;;;;;;16.13;9.67;;;2.50;99.90;;;;;;5039689;28;20426;-85
2022/03/04 03:20:21;;;;;;;14.63;10.20;;;2.60;99.90;;;;;;5038423;28;20221;-85
2022/03/04 03:22:47;;;;;;;14.57;9.40;;;2.70;99.90;;;;;;5057026;28;20234;-85
2022/03/04 03:25:13;;;;;;;13.40;9.70;;;2.70;99.90;;;;;;5038882;28;20201;-85
2022/03/04 03:27:39;;;;;;;16.40;9.83;;;2.70;99.90;;;;;;5060361;28;20179;-83
2022/03/04 03:30:06;;;;;;;14.10;9.50;;;2.60;99.90;;;;;;5041980;28;20196;-85
2022/03/04 03:32:32;;;;;;;16.23;10.47;;;2.60;99.90;;;;;;5041649;28;20449;-85
2022/03/04 03:34:57;;;;;;;17.27;10.43;;;2.60;99.90;;;;;;5042014;28;20463;-85
2022/03/04 03:37:23;;;;;;;18.57;10.33;;;2.70;99.90;;;;;;5041923;28;20202;-85
2022/03/04 03:39:48;;;;;;;16.07;9.70;;;2.70;99.90;;;;;;5043306;28;20204;-83
2022/03/04 03:42:14;;;;;;;16.00;9.63;;;2.60;99.90;;;;;;5043025;28;20175;-85
2022/03/04 03:44:40;;;;;;;17.10;10.93;;;2.60;99.90;;;;;;5042614;28;20265;-85
2022/03/04 03:47:06;;;;;;;14.77;9.63;;;2.70;99.90;;;;;;5042364;28;20188;-86
2022/03/04 03:49:32;;;;;;;17.77;10.90;;;2.70;99.90;;;;;;5042976;28;20203;-85
2022/03/04 03:51:57;;;;;;;14.40;9.50;;;2.70;99.90;;;;;;5042652;28;20449;-83
2022/03/04 03:54:23;;;;;;;16.40;9.47;;;2.60;99.90;;;;;;5042734;28;20857;-85
2022/03/04 03:56:49;;;;;;;14.77;9.93;;;2.60;99.90;;;;;;5042239;28;20181;-85
2022/03/04 03:59:15;;;;;;;15.97;9.63;;;2.60;99.90;;;;;;5041857;28;20201;-85
2022/03/04 04:01:40;;;;;;;17.13;9.90;;;2.60;99.90;;;;;;5041700;28;20415;-85
2022/03/04 04:04:11;;;;;;;15.80;9.47;;;2.60;99.90;;;;;;5042400;28;20234;-84
2022/03/04 04:06:38;;;;;;;16.03;9.80;;;2.60;99.90;;;;;;5060695;28;20176;-86
2022/03/04 04:09:04;;;;;;;14.40;9.80;;;2.50;99.90;;;;;;5060928;28;20435;-85
2022/03/04 04:11:32;;;;;;;19.03;10.67;;;2.60;99.90;;;;;;5043411;28;20418;-85
2022/03/04 04:13:58;;;;;;;15.07;10.13;;;2.60;99.90;;;;;;5042959;28;20484;-86
2022/03/04 04:16:23;;;;;;;17.30;10.57;;;2.60;99.90;;;;;;5043264;28;20435;-86
2022/03/04 04:18:49;;;;;;;13.60;8.70;;;2.50;99.90;;;;;;5042929;28;20209;-85
2022/03/04 04:21:14;;;;;;;16.13;10.13;;;2.50;99.90;;;;;;5043654;28;20173;-84
2022/03/04 04:23:40;;;;;;;13.67;8.87;;;2.50;99.90;;;;;;5043665;28;20181;-86
2022/03/04 04:26:06;;;;;;;19.30;10.70;;;2.40;99.90;;;;;;5042737;28;20218;-85
2022/03/04 04:28:33;;;;;;;19.90;9.60;;;2.40;99.90;;;;;;5042333;28;20185;-83
2022/03/04 04:30:59;;;;;;;17.03;11.10;;;2.30;99.90;;;;;;5043614;28;20452;-84
2022/03/04 04:33:24;;;;;;;12.80;9.20;;;2.30;99.90;;;;;;5061641;28;20418;-83
2022/03/04 04:35:50;;;;;;;14.60;9.80;;;2.20;99.90;;;;;;5061134;28;20176;-85
2022/03/04 04:38:15;;;;;;;14.87;10.77;;;2.20;99.90;;;;;;5043001;28;20185;-85
2022/03/04 04:40:42;;;;;;;16.83;9.97;;;2.10;99.90;;;;;;5042612;28;20251;-85
2022/03/04 04:43:08;;;;;;;20.03;10.07;;;2.00;99.90;;;;;;5043206;28;20789;-85
2022/03/04 04:45:33;;;;;;;13.37;8.67;;;1.90;99.90;;;;;;5061058;28;20186;-85
2022/03/04 04:47:59;;;;;;;17.43;10.10;;;1.90;99.90;;;;;;5059582;28;20211;-84
2022/03/04 04:50:31;;;;;;;16.87;9.57;;;1.80;99.90;;;;;;5042356;28;20200;-85
2022/03/04 04:52:56;;;;;;;15.73;10.43;;;1.70;99.90;;;;;;5043828;28;20656;-85
2022/03/04 04:55:22;;;;;;;19.63;10.10;;;1.70;99.90;;;;;;5043538;28;20492;-84
2022/03/04 04:57:47;;;;;;;17.20;10.70;;;1.70;99.90;;;;;;5060368;28;20172;-85
2022/03/04 05:00:14;;;;;;;15.40;9.93;;;1.60;99.90;;;;;;5043443;28;20230;-83
2022/03/04 05:02:39;;;;;;;18.03;11.03;;;1.50;99.90;;;;;;5044042;28;20551;-84
2022/03/04 05:05:05;;;;;;;14.93;9.23;;;1.50;99.90;;;;;;5043646;28;20427;-85
2022/03/04 05:07:31;;;;;;;18.13;9.40;;;1.50;99.90;;;;;;5044428;28;20184;-85
2022/03/04 05:09:56;;;;;;;14.50;9.43;;;1.50;99.90;;;;;;5043097;28;20749;-85
2022/03/04 05:12:22;;;;;;;18.50;11.17;;;1.40;99.90;;;;;;5043250;28;20199;-84
2022/03/04 05:14:47;;;;;;;18.40;10.07;;;1.40;99.90;;;;;;5043299;28;20218;-82
2022/03/04 05:17:13;;;;;;;15.23;9.90;;;1.30;99.90;;;;;;5043168;28;20190;-85
2022/03/04 05:19:39;;;;;;;17.20;10.77;;;1.30;99.90;;;;;;5044281;28;20254;-84
2022/03/04 05:22:04;;;;;;;18.60;10.60;;;1.30;99.90;;;;;;5044066;28;20176;-84
2022/03/04 05:24:30;;;;;;;19.57;11.50;;;1.20;99.90;;;;;;5044162;28;20271;-83
2022/03/04 05:26:55;;;;;;;12.67;9.07;;;1.20;99.90;;;;;;5044019;28;20179;-85
2022/03/04 05:29:21;;;;;;;14.03;10.07;;;1.20;99.90;;;;;;5043778;28;20685;-85
2022/03/04 05:31:46;;;;;;;15.10;9.63;;;1.10;99.90;;;;;;5043920;28;20184;-85
2022/03/04 05:34:12;;;;;;;18.13;9.60;;;1.10;99.90;;;;;;5044351;28;20251;-84
2022/03/04 05:36:39;;;;;;;16.40;10.33;;;1.10;99.90;;;;;;5044247;28;20186;-83
2022/03/04 05:39:05;;;;;;;19.57;10.53;;;1.10;99.90;;;;;;5043411;28;20937;-85
2022/03/04 05:41:30;;;;;;;19.77;11.40;;;1.10;99.90;;;;;;5062818;28;20552;-84
2022/03/04 05:43:56;;;;;;;19.77;11.80;;;1.00;99.90;;;;;;5062076;28;20553;-86
2022/03/04 05:46:22;;;;;;;21.40;11.23;;;1.10;99.90;;;;;;5045407;28;20669;-85
2022/03/04 05:48:48;;;;;;;16.47;11.40;;;1.10;99.90;;;;;;5045061;28;20512;-85
2022/03/04 05:51:13;;;;;;;15.17;9.70;;;1.00;99.90;;;;;;5063533;28;20185;-84
2022/03/04 05:53:39;;;;;;;17.87;10.07;;;1.00;99.90;;;;;;5046370;28;20780;-84
2022/03/04 05:56:07;;;;;;;17.07;9.87;;;1.10;99.90;;;;;;5045873;28;20517;-85
2022/03/04 05:58:34;;;;;;;15.33;10.10;;;1.00;99.90;;;;;;5045322;28;20436;-83
2022/03/04 06:01:00;;;;;;;18.87;11.83;;;1.00;99.90;;;;;;5044644;28;20963;-85
2022/03/04 06:03:26;;;;;;;17.10;9.83;;;1.00;99.90;;;;;;5044718;28;20418;-85
2022/03/04 06:05:51;;;;;;;17.43;10.43;;;1.00;99.90;;;;;;5045291;28;20436;-85
2022/03/04 06:08:18;;;;;;;19.40;10.87;;;1.00;99.90;;;;;;5045197;28;20184;-82
2022/03/04 06:10:43;;;;;;;14.27;9.97;;;1.00;99.90;;;;;;5046020;28;20297;-83
2022/03/04 06:13:09;;;;;;;19.37;11.37;;;0.90;99.90;;;;;;5046496;28;20908;-83
2022/03/04 06:15:34;;;;;;;16.30;10.63;;;0.90;99.90;;;;;;5063416;28;20243;-85
2022/03/04 06:18:00;;;;;;;15.57;10.83;;;0.90;99.90;;;;;;5063130;28;20210;-84
2022/03/04 06:22:58;;;;;;;18.20;10.40;;;0.80;99.90;;;;;;5049605;28;20255;-84
2022/03/04 06:25:24;;;;;;;18.83;11.30;;;0.80;99.90;;;;;;5035224;28;20454;-81
2022/03/04 06:27:55;;;;;;;16.93;10.20;;;0.90;99.90;;;;;;5034410;28;20457;-82
2022/03/04 06:30:22;;;;;;;19.13;10.10;;;0.90;99.90;;;;;;5052824;28;20276;-83
2022/03/04 06:33:29;;;;;;;18.23;12.80;;;0.90;99.90;;;;;;5072468;28;20806;-84
2022/03/04 06:35:38;;;;;;;18.63;11.40;;;0.90;99.90;;;;;;5072126;28;20563;-83
2022/03/04 06:38:04;;;;;;;17.03;10.83;;;0.90;99.90;;;;;;5054051;28;20448;-83
2022/03/04 06:40:29;;;;;;;17.33;10.30;;;1.00;99.90;;;;;;5054288;28;20719;-84
2022/03/04 06:42:55;;;;;;;19.90;11.87;;;1.00;99.90;;;;;;5054527;28;20246;-82
2022/03/04 06:45:20;;;;;;;21.30;11.80;;;1.00;99.90;;;;;;5054115;28;20214;-82
2022/03/04 06:47:46;;;;;;;18.00;10.73;;;1.10;99.90;;;;;;5054433;28;20188;-83
2022/03/04 06:50:11;;;;;;;16.00;9.70;;;1.10;99.90;;;;;;5054370;28;20185;-84
2022/03/04 06:52:37;;;;;;;19.20;10.23;;;1.20;99.90;;;;;;5078969;28;20190;-82
2022/03/04 06:55:04;;;;;;;19.40;11.73;;;1.20;99.90;;;;;;5068008;28;20214;-82
2022/03/04 06:57:29;;;;;;;15.67;10.13;;;1.30;99.90;;;;;;5061772;28;20186;-85
2022/03/04 06:59:55;;;;;;;18.67;11.60;;;1.30;99.90;;;;;;5063120;28;20429;-84
2022/03/04 07:02:21;;;;;;;22.00;12.77;;;1.40;99.90;;;;;;5081876;28;20195;-85
2022/03/04 07:04:47;;;;;;;17.90;11.00;;;1.40;99.90;;;;;;5058765;28;20191;-83
2022/03/04 07:07:13;;;;;;;21.10;10.53;;;1.50;99.90;;;;;;5057388;28;20594;-83
2022/03/04 07:09:39;;;;;;;22.67;11.63;;;1.50;99.90;;;;;;5075571;28;20409;-83
2022/03/04 07:12:05;;;;;;;22.30;12.40;;;1.60;99.90;;;;;;5057457;28;20533;-83
2022/03/04 07:14:30;;;;;;;17.23;10.60;;;1.70;99.90;;;;;;5057341;28;20203;-84
2022/03/04 07:16:56;;;;;;;21.47;12.73;;;1.80;99.90;;;;;;5063570;28;20487;-85
2022/03/04 07:19:21;;;;;;;20.07;12.37;;;1.90;99.90;;;;;;5064116;28;20557;-83
2022/03/04 07:21:47;;;;;;;18.90;12.93;;;1.90;99.90;;;;;;5080418;28;20747;-83
2022/03/04 07:24:13;;;;;;;21.10;13.00;;;1.90;99.90;;;;;;5080530;28;20167;-83
2022/03/04 07:26:38;;;;;;;19.33;13.33;;;2.00;99.90;;;;;;5062023;28;20179;-84
2022/03/04 07:29:04;;;;;;;23.17;13.40;;;2.10;99.90;;;;;;5078328;28;20179;-83
2022/03/04 07:31:29;;;;;;;24.60;13.30;;;2.10;99.90;;;;;;5060071;28;20233;-83
2022/03/04 07:33:55;;;;;;;22.17;12.83;;;2.20;99.90;;;;;;5077568;28;20757;-84
2022/03/04 07:36:20;;;;;;;23.07;14.17;;;2.20;99.90;;;;;;5059356;28;20199;-83
2022/03/04 07:38:46;;;;;;;17.93;11.27;;;2.40;99.90;;;;;;5058210;28;20184;-83
2022/03/04 07:41:12;;;;;;;19.23;10.97;;;2.60;99.90;;;;;;5058398;28;20662;-83
2022/03/04 07:43:38;;;;;;;18.33;11.20;;;2.70;99.90;;;;;;5076305;28;20181;-83
2022/03/04 07:46:03;;;;;;;20.10;12.03;;;2.90;99.90;;;;;;5058234;28;20427;-84
2022/03/04 07:48:29;;;;;;;15.57;9.53;;;3.00;99.90;;;;;;5077512;28;20177;-83
2022/03/04 07:50:55;;;;;;;16.73;10.80;;;3.20;99.90;;;;;;5057734;28;20200;-83
2022/03/04 07:53:20;;;;;;;18.80;11.07;;;3.30;99.90;;;;;;5057496;28;20587;-84
2022/03/04 07:55:46;;;;;;;20.27;12.23;;;3.30;99.90;;;;;;5057841;28;20198;-84
2022/03/04 07:58:11;;;;;;;20.10;11.07;;;3.50;99.90;;;;;;5075730;28;20185;-83
2022/03/04 08:00:37;;;;;;;18.77;10.17;;;3.70;99.90;;;;;;5057562;28;20185;-83
2022/03/04 08:03:03;;;;;;;17.57;11.10;;;3.80;99.90;;;;;;5075740;28;20174;-83
2022/03/04 08:05:28;;;;;;;18.57;10.27;;;3.90;99.90;;;;;;5057495;28;20264;-83
2022/03/04 08:07:55;;;;;;;17.80;11.10;;;4.10;99.90;;;;;;5057364;28;20210;-84
2022/03/04 08:10:20;;;;;;;20.83;11.43;;;4.20;99.90;;;;;;5057165;28;20186;-82
2022/03/04 08:12:46;;;;;;;19.43;11.77;;;4.30;99.90;;;;;;5056380;28;21008;-82
2022/03/04 08:15:12;;;;;;;21.57;12.23;;;4.40;99.90;;;;;;5074779;28;20214;-83
2022/03/04 08:17:39;;;;;;;45.67;13.27;;;4.50;99.90;;;;;;5074819;28;20182;-83
2022/03/04 08:20:05;;;;;;;18.20;12.17;;;4.70;99.90;;;;;;5074773;28;20409;-83
2022/03/04 08:22:31;;;;;;;19.73;11.60;;;4.70;99.90;;;;;;5056418;28;20551;-83
2022/03/04 08:24:56;;;;;;;16.43;11.13;;;4.80;99.90;;;;;;5056656;28;20549;-83
2022/03/04 08:27:23;;;;;;;18.40;11.10;;;4.90;99.90;;;;;;5057503;28;20197;-82
2022/03/04 08:29:49;;;;;;;17.30;10.40;;;5.10;99.90;;;;;;5075435;28;20179;-84
2022/03/04 08:32:16;;;;;;;17.80;11.37;;;5.20;99.90;;;;;;5057362;28;20982;-83
2022/03/04 08:34:42;;;;;;;18.77;11.50;;;5.30;99.90;;;;;;5076372;28;20195;-83
2022/03/04 08:37:08;;;;;;;20.50;12.13;;;5.40;99.90;;;;;;5056605;28;20468;-82
2022/03/04 08:39:34;;;;;;;17.93;11.97;;;5.60;99.90;;;;;;5056632;28;20653;-83
2022/03/04 08:41:59;;;;;;;21.47;12.10;;;5.60;99.90;;;;;;5056987;28;20618;-83
2022/03/04 08:44:25;;;;;;;22.30;12.80;;;5.70;99.90;;;;;;5075424;28;20696;-83
2022/03/04 08:46:50;;;;;;;14.40;11.13;;;5.90;99.90;;;;;;5057068;28;20181;-83
2022/03/04 08:49:19;;;;;;;19.93;13.20;;;6.00;99.90;;;;;;5075285;28;20646;-84
2022/03/04 08:51:45;;;;;;;23.17;12.70;;;6.00;99.90;;;;;;5056583;28;20204;-82
2022/03/04 08:54:11;;;;;;;18.03;12.57;;;6.10;99.90;;;;;;5042001;28;20575;-82
2022/03/04 08:56:36;;;;;;;22.30;13.63;;;6.20;99.90;;;;;;5052342;28;20523;-81
2022/03/04 08:59:02;;;;;;;19.00;13.03;;;6.30;99.90;;;;;;5037195;28;20285;-82
2022/03/04 09:01:28;;;;;;;22.10;12.83;;;6.40;99.90;;;;;;5036873;28;20615;-81
2022/03/04 09:03:54;;;;;;;19.77;12.23;;;6.40;99.90;;;;;;5036805;28;20424;-81
2022/03/04 09:06:20;;;;;;;29.07;13.30;;;6.50;99.90;;;;;;5029694;28;20608;-80
2022/03/04 09:08:45;;;;;;;19.43;14.03;;;6.60;99.90;;;;;;5028881;28;20465;-82
2022/03/04 09:11:11;;;;;;;25.07;15.37;;;6.60;99.90;;;;;;5053665;28;20210;-82
2022/03/04 09:13:37;;;;;;;23.83;14.57;;;6.70;99.90;;;;;;5054212;28;20204;-81
2022/03/04 09:16:03;;;;;;;21.83;14.63;;;6.70;99.90;;;;;;5054309;28;20600;-82
2022/03/04 09:18:29;;;;;;;22.70;15.27;;;6.70;99.90;;;;;;5052895;28;20635;-83
2022/03/04 09:20:55;;;;;;;20.43;14.00;;;6.70;99.90;;;;;;5044285;28;20564;-82
2022/03/04 09:23:21;;;;;;;25.17;15.60;;;6.80;99.90;;;;;;5051387;28;20902;-83
2022/03/04 09:25:48;;;;;;;22.53;12.90;;;6.90;99.90;;;;;;5053902;28;20439;-83
2022/03/04 09:28:17;;;;;;;24.40;14.73;;;7.00;99.90;;;;;;5054149;28;20175;-85
2022/03/04 09:30:42;;;;;;;25.10;13.80;;;7.00;99.90;;;;;;5048918;28;20488;-83
2022/03/04 09:33:08;;;;;;;27.73;15.83;;;7.20;99.90;;;;;;5049458;28;20979;-83
2022/03/04 09:35:34;;;;;;;24.27;15.13;;;7.30;99.90;;;;;;5046715;28;20212;-84
2022/03/04 09:38:00;;;;;;;19.80;13.67;;;7.30;99.90;;;;;;5032545;28;20264;-83
2022/03/04 09:40:26;;;;;;;25.50;16.47;;;7.40;99.90;;;;;;5036590;28;20171;-84
2022/03/04 09:42:54;;;;;;;24.43;16.00;;;7.40;99.90;;;;;;5051748;28;20433;-83
2022/03/04 09:45:20;;;;;;;22.90;14.50;;;7.40;99.90;;;;;;5048432;28;20430;-82
2022/03/04 09:47:46;;;;;;;20.60;14.73;;;7.40;99.90;;;;;;5064600;28;20428;-87
2022/03/04 09:50:16;;;;;;;24.63;15.53;;;7.50;99.90;;;;;;5067533;28;20179;-84
2022/03/04 09:52:42;;;;;;;22.00;14.80;;;7.50;99.90;;;;;;5051888;28;20502;-86
2022/03/04 09:55:08;;;;;;;25.40;14.30;;;7.50;99.90;;;;;;5052801;28;21085;-86
2022/03/04 09:57:33;;;;;;;26.87;14.83;;;7.70;99.90;;;;;;5070854;28;20205;-84
2022/03/04 09:59:59;;;;;;;24.20;16.03;;;7.70;99.90;;;;;;5053922;28;20449;-85
2022/03/04 10:02:25;;;;;;;22.80;14.93;;;7.80;99.90;;;;;;5052820;28;20199;-85
2022/03/04 10:05:01;;;;;;;25.83;15.93;;;7.90;99.90;;;;;;5069687;28;20413;-84
2022/03/04 10:07:36;;;;;;;25.50;16.03;;;8.00;99.90;;;;;;5052054;28;20209;-83
2022/03/04 10:10:04;;;;;;;25.20;15.73;;;8.10;99.90;;;;;;5054044;28;20511;-85
2022/03/04 10:12:30;;;;;;;20.60;15.13;;;8.10;99.90;;;;;;5052970;28;20468;-85
2022/03/04 10:15:03;;;;;;;26.37;16.57;;;8.20;99.90;;;;;;5048605;28;20469;-84
2022/03/04 10:17:33;;;;;;;24.03;15.47;;;8.50;99.90;;;;;;5053264;28;20386;-84
2022/03/04 10:20:02;;;;;;;25.03;15.80;;;8.60;99.90;;;;;;5053480;28;20426;-83
2022/03/04 10:22:42;;;;;;;23.27;15.67;;;8.80;99.90;;;;;;5053367;28;20542;-83
2022/03/04 10:25:26;;;;;;;26.93;15.80;;;8.90;99.90;;;;;;5053556;28;20446;-86
2022/03/04 10:27:52;;;;;;;25.13;16.30;;;9.40;99.90;;;;;;5054837;28;20426;-83
2022/03/04 10:30:32;;;;;;;26.07;15.27;;;14.60;97.40;;;;;;5055536;28;20422;-86
2022/03/04 10:33:10;;;;;;;23.37;16.23;;;15.50;93.60;;;;;;5072959;28;20421;-86
2022/03/04 10:35:37;;;;;;;24.73;16.47;;;18.20;68.40;;;;;;5058141;28;20480;-83
2022/03/04 10:38:04;;;;;;;25.20;16.17;;;19.20;60.60;;;;;;5059523;28;20509;-86
2022/03/04 10:40:43;;;;;;;22.63;16.43;;;21.60;55.60;;;;;;5060216;28;20756;-83
2022/03/04 10:43:10;;;;;;;26.13;17.00;;;23.50;46.90;;;;;;5061363;28;20428;-83
2022/03/04 10:45:36;;;;;;;23.13;17.90;;;25.30;42.10;;;;;;5061425;28;20462;-85
2022/03/04 10:48:20;;;;;;;24.70;18.90;;;26.90;37.20;;;;;;5077782;28;20464;-85
2022/03/04 10:50:48;;;;;;;21.97;17.80;;;28.10;33.40;;;;;;5079452;28;20455;-84
2022/03/04 10:53:19;;;;;;;23.90;18.60;;;29.20;31.70;;;;;;5061340;28;20520;-85
2022/03/04 10:55:51;;;;;;;22.57;17.50;;;30.50;30.00;;;;;;5062470;28;20434;-85
2022/03/04 10:58:22;;;;;;;20.57;18.33;;;31.50;28.80;;;;;;5061876;28;20418;-86
2022/03/04 11:00:59;;;;;;;21.20;18.40;;;32.10;27.10;;;;;;5079344;28;20472;-86
2022/03/04 11:03:26;;;;;;;23.77;18.93;;;32.20;25.30;;;;;;5062017;28;20424;-85
2022/03/04 11:05:54;;;;;;;22.53;18.37;;;31.40;24.80;;;;;;5078816;28;20426;-84
2022/03/04 11:08:23;;;;;;;22.90;18.60;;;31.20;25.40;;;;;;5061894;28;20471;-85
2022/03/04 11:10:50;;;;;;;20.70;18.50;;;31.50;25.50;;;;;;5062206;28;20438;-85
2022/03/04 11:13:16;;;;;;;20.40;18.03;;;31.60;24.60;;;;;;5078800;28;20478;-86
2022/03/04 11:15:45;;;;;;;21.93;17.87;;;32.20;25.30;;;;;;5061647;28;20501;-83
2022/03/04 11:18:12;;;;;;;20.07;17.90;;;32.40;24.00;;;;;;5061996;28;20402;-85
2022/03/04 11:20:39;;;;;;;20.50;18.30;;;31.60;24.30;;;;;;5059892;28;20418;-82
2022/03/04 11:30:12;;;;;;;24.30;19.90;;;31.50;23.80;;;;;;5071352;28;20393;-85
2022/03/04 11:33:19;;;;;;;23.20;18.40;;;31.40;24.30;;;;;;4990533;28;20429;-82
2022/03/04 11:36:11;;;;;;;20.63;17.73;;;30.30;23.70;;;;;;5042281;28;20411;-83
2022/03/04 11:38:48;;;;;;;22.00;17.93;;;29.70;24.80;;;;;;5040816;28;20476;-85
2022/03/04 11:41:23;;;;;;;20.60;17.20;;;30.00;24.30;;;;;;5024767;28;20453;-82
2022/03/04 11:43:48;;;;;;;22.00;17.70;;;28.50;24.10;;;;;;5023133;28;20496;-83
2022/03/04 11:46:22;;;;;;;24.30;18.87;;;27.30;24.60;;;;;;5022959;28;20427;-86
2022/03/04 11:49:26;;;;;;;20.23;17.17;;;26.50;24.90;;;;;;5025040;28;20164;-85
2022/03/04 11:52:10;;;;;;;21.73;16.50;;;25.60;25.00;;;;;;5027471;28;20468;-83
2022/03/04 11:54:42;;;;;;;22.13;16.80;;;25.60;26.10;;;;;;5041312;28;20505;-82
2022/03/04 11:57:39;;;;;;;22.20;17.57;;;26.20;26.00;;;;;;5058795;28;20441;-83
2022/03/04 12:00:25;;;;;;;20.27;16.60;;;26.80;26.00;;;;;;5053451;28;20474;-82
2022/03/04 12:02:56;;;;;;;22.47;18.33;;;27.70;25.30;;;;;;5046744;28;20921;-81
2022/03/04 12:05:25;;;;;;;22.57;17.13;;;28.20;24.90;;;;;;5055910;28;21353;-81
2022/03/04 12:07:52;;;;;;;22.43;18.20;;;27.40;25.00;;;;;;5034565;28;20494;-80
2022/03/04 12:10:20;;;;;;;22.10;17.37;;;27.20;25.90;;;;;;5050117;28;20948;-80
2022/03/04 12:13:06;;;;;;;20.13;16.20;;;27.50;24.60;;;;;;5046887;28;20439;-81
2022/03/04 12:15:52;;;;;;;20.20;16.93;;;27.20;24.50;;;;;;5051226;28;20439;-83
2022/03/04 12:18:25;;;;;;;18.07;15.67;;;26.30;24.50;;;;;;5033191;28;20507;-81
2022/03/04 12:21:03;;;;;;;20.30;15.83;;;25.90;25.00;;;;;;5042943;28;20571;-84
2022/03/04 12:23:30;;;;;;;21.43;16.60;;;26.20;24.60;;;;;;5080793;23;20507;-81
2022/03/04 12:25:58;;;;;;;22.37;17.67;;;26.00;25.60;;;;;;5072343;28;20445;-82
2022/03/04 12:28:33;;;;;;;22.33;16.47;;;25.70;25.60;;;;;;5056597;28;20415;-82
2022/03/04 12:31:02;;;;;;;22.70;17.73;;;24.00;25.90;;;;;;5054283;28;20493;-82
2022/03/04 12:33:28;;;;;;;21.50;17.83;;;22.30;26.80;;;;;;5053006;28;20434;-81
2022/03/04 12:35:57;;;;;;;23.27;17.63;;;21.10;27.80;;;;;;5053632;28;20556;-81
2022/03/04 12:38:24;;;;;;;22.17;16.20;;;20.50;28.40;;;;;;5053228;28;20411;-81
2022/03/04 12:40:50;;;;;;;20.10;15.27;;;20.40;27.80;;;;;;5053417;28;20414;-83
2022/03/04 12:43:15;;;;;;;19.50;15.17;;;22.70;28.40;;;;;;5052115;28;20445;-81
2022/03/04 12:45:42;;;;;;;21.67;15.53;;;24.70;27.60;;;;;;5052070;28;20666;-81
2022/03/04 12:48:08;;;;;;;18.40;15.77;;;26.60;25.70;;;;;;5052982;28;20207;-81